sensor_id;sensor_type;location;lat;lon;timestamp;temperature;humidity
22968;DHT22;11650;48.106;-1.696;2023-07-24T00:01:16;16.80;99.90
22968;DHT22;11650;48.106;-1.696;2023-07-24T00:03:43;16.80;99.90
22968;DHT22;11650;48.106;-1.696;2023-07-24T00:06:09;16.80;99.90
22968;DHT22;11650;48.106;-1.696;2023-07-24T00:08:35;16.80;99.90
22968;DHT22;11650;48.106;-1.696;2023-07-24T00:11:00;16.80;99.90
22968;DHT22;11650;48.106;-1.696;2023-07-24T00:13:28;16.80;99.90
22968;DHT22;11650;48.106;-1.696;2023-07-24T00:15:54;16.80;99.90
22968;DHT22;11650;48.106;-1.696;2023-07-24T00:18:19;16.80;99.90
22968;DHT22;11650;48.106;-1.696;2023-07-24T00:20:45;16.80;99.90
22968;DHT22;11650;48.106;-1.696;2023-07-24T00:23:10;16.80;99.90
22968;DHT22;11650;48.106;-1.696;2023-07-24T00:25:37;16.80;99.90
22968;DHT22;11650;48.106;-1.696;2023-07-24T00:28:02;16.70;99.90
22968;DHT22;11650;48.106;-1.696;2023-07-24T00:30:28;16.80;99.90
22968;DHT22;11650;48.106;-1.696;2023-07-24T00:32:54;16.70;99.90
22968;DHT22;11650;48.106;-1.696;2023-07-24T00:35:19;16.70;99.90
22968;DHT22;11650;48.106;-1.696;2023-07-24T00:37:45;16.70;99.90
22968;DHT22;11650;48.106;-1.696;2023-07-24T00:40:11;16.70;99.90
22968;DHT22;11650;48.106;-1.696;2023-07-24T00:42:37;16.70;99.90
22968;DHT22;11650;48.106;-1.696;2023-07-24T00:45:02;16.70;99.90
22968;DHT22;11650;48.106;-1.696;2023-07-24T00:47:28;16.70;99.90
22968;DHT22;11650;48.106;-1.696;2023-07-24T00:49:54;16.70;99.90
22968;DHT22;11650;48.106;-1.696;2023-07-24T00:52:21;16.70;99.90
22968;DHT22;11650;48.106;-1.696;2023-07-24T00:54:47;16.70;99.90
22968;DHT22;11650;48.106;-1.696;2023-07-24T00:57:13;16.70;99.90
22968;DHT22;11650;48.106;-1.696;2023-07-24T00:59:40;16.70;99.90
22968;DHT22;11650;48.106;-1.696;2023-07-24T01:02:07;16.60;99.90
22968;DHT22;11650;48.106;-1.696;2023-07-24T01:04:33;16.70;99.90
22968;DHT22;11650;48.106;-1.696;2023-07-24T01:06:59;16.60;99.90
22968;DHT22;11650;48.106;-1.696;2023-07-24T01:09:25;16.60;99.90
22968;DHT22;11650;48.106;-1.696;2023-07-24T01:11:56;16.60;99.90
22968;DHT22;11650;48.106;-1.696;2023-07-24T01:14:46;16.60;99.90
22968;DHT22;11650;48.106;-1.696;2023-07-24T01:17:15;16.60;99.90
22968;DHT22;11650;48.106;-1.696;2023-07-24T01:19:49;16.60;99.90
22968;DHT22;11650;48.106;-1.696;2023-07-24T01:25:16;16.50;99.90
22968;DHT22;11650;48.106;-1.696;2023-07-24T01:27:45;16.40;99.90
22968;DHT22;11650;48.106;-1.696;2023-07-24T01:30:13;16.40;99.90
22968;DHT22;11650;48.106;-1.696;2023-07-24T01:32:39;16.30;99.90
22968;DHT22;11650;48.106;-1.696;2023-07-24T01:35:05;16.30;99.90
22968;DHT22;11650;48.106;-1.696;2023-07-24T01:37:33;16.20;99.90
22968;DHT22;11650;48.106;-1.696;2023-07-24T01:39:59;16.20;99.90
22968;DHT22;11650;48.106;-1.696;2023-07-24T01:42:25;16.10;99.90
22968;DHT22;11650;48.106;-1.696;2023-07-24T01:44:55;16.10;99.90
22968;DHT22;11650;48.106;-1.696;2023-07-24T01:47:21;16.10;99.90
22968;DHT22;11650;48.106;-1.696;2023-07-24T01:49:47;16.10;99.90
22968;DHT22;11650;48.106;-1.696;2023-07-24T01:52:13;16.10;99.90
22968;DHT22;11650;48.106;-1.696;2023-07-24T01:54:39;16.20;99.90
22968;DHT22;11650;48.106;-1.696;2023-07-24T01:57:05;16.10;99.90
22968;DHT22;11650;48.106;-1.696;2023-07-24T01:59:31;16.10;99.90
22968;DHT22;11650;48.106;-1.696;2023-07-24T02:01:56;16.10;99.90
22968;DHT22;11650;48.106;-1.696;2023-07-24T02:04:22;16.10;99.90
22968;DHT22;11650;48.106;-1.696;2023-07-24T02:06:49;16.10;99.90
22968;DHT22;11650;48.106;-1.696;2023-07-24T02:09:15;16.20;99.90
22968;DHT22;11650;48.106;-1.696;2023-07-24T02:11:41;16.10;99.90
22968;DHT22;11650;48.106;-1.696;2023-07-24T02:14:07;16.10;99.90
22968;DHT22;11650;48.106;-1.696;2023-07-24T02:16:33;16.10;99.90
22968;DHT22;11650;48.106;-1.696;2023-07-24T02:18:58;16.10;99.90
22968;DHT22;11650;48.106;-1.696;2023-07-24T02:21:24;16.10;99.90
22968;DHT22;11650;48.106;-1.696;2023-07-24T02:23:49;16.20;99.90
22968;DHT22;11650;48.106;-1.696;2023-07-24T02:26:15;16.10;99.90
22968;DHT22;11650;48.106;-1.696;2023-07-24T02:28:41;16.20;99.90
22968;DHT22;11650;48.106;-1.696;2023-07-24T02:31:06;16.20;99.90
22968;DHT22;11650;48.106;-1.696;2023-07-24T02:33:32;16.20;99.90
22968;DHT22;11650;48.106;-1.696;2023-07-24T02:35:58;16.20;99.90
22968;DHT22;11650;48.106;-1.696;2023-07-24T02:38:23;16.20;99.90
22968;DHT22;11650;48.106;-1.696;2023-07-24T02:40:49;16.20;99.90
22968;DHT22;11650;48.106;-1.696;2023-07-24T02:43:14;16.20;99.90
22968;DHT22;11650;48.106;-1.696;2023-07-24T02:45:40;16.20;99.90
22968;DHT22;11650;48.106;-1.696;2023-07-24T02:48:06;16.20;99.90
22968;DHT22;11650;48.106;-1.696;2023-07-24T02:50:33;16.10;99.90
22968;DHT22;11650;48.106;-1.696;2023-07-24T02:52:59;16.10;99.90
22968;DHT22;11650;48.106;-1.696;2023-07-24T02:55:25;16.00;99.90
22968;DHT22;11650;48.106;-1.696;2023-07-24T02:57:50;15.90;99.90
22968;DHT22;11650;48.106;-1.696;2023-07-24T03:00:16;15.90;99.90
22968;DHT22;11650;48.106;-1.696;2023-07-24T03:02:42;15.80;99.90
22968;DHT22;11650;48.106;-1.696;2023-07-24T03:05:08;15.80;99.90
22968;DHT22;11650;48.106;-1.696;2023-07-24T03:07:33;15.80;99.90
22968;DHT22;11650;48.106;-1.696;2023-07-24T03:09:59;15.70;99.90
22968;DHT22;11650;48.106;-1.696;2023-07-24T03:12:25;15.70;99.90
22968;DHT22;11650;48.106;-1.696;2023-07-24T03:14:50;15.60;99.90
22968;DHT22;11650;48.106;-1.696;2023-07-24T03:17:16;15.60;99.90
22968;DHT22;11650;48.106;-1.696;2023-07-24T03:19:42;15.60;99.90
22968;DHT22;11650;48.106;-1.696;2023-07-24T03:22:07;15.50;99.90
22968;DHT22;11650;48.106;-1.696;2023-07-24T03:24:33;15.50;99.90
22968;DHT22;11650;48.106;-1.696;2023-07-24T03:26:59;15.50;99.90
22968;DHT22;11650;48.106;-1.696;2023-07-24T03:29:26;15.40;99.90
22968;DHT22;11650;48.106;-1.696;2023-07-24T03:31:52;15.40;99.90
22968;DHT22;11650;48.106;-1.696;2023-07-24T03:34:17;15.40;99.90
22968;DHT22;11650;48.106;-1.696;2023-07-24T03:36:43;15.40;99.90
22968;DHT22;11650;48.106;-1.696;2023-07-24T03:39:11;15.30;99.90
22968;DHT22;11650;48.106;-1.696;2023-07-24T03:41:38;15.30;99.90
22968;DHT22;11650;48.106;-1.696;2023-07-24T03:44:04;15.30;99.90
22968;DHT22;11650;48.106;-1.696;2023-07-24T03:46:32;15.20;99.90
22968;DHT22;11650;48.106;-1.696;2023-07-24T03:48:58;15.20;99.90
22968;DHT22;11650;48.106;-1.696;2023-07-24T03:51:24;15.20;99.90
22968;DHT22;11650;48.106;-1.696;2023-07-24T03:53:49;15.20;99.90
22968;DHT22;11650;48.106;-1.696;2023-07-24T03:56:15;15.20;99.90
22968;DHT22;11650;48.106;-1.696;2023-07-24T03:58:41;15.20;99.90
22968;DHT22;11650;48.106;-1.696;2023-07-24T04:01:07;15.10;99.90
22968;DHT22;11650;48.106;-1.696;2023-07-24T04:03:33;15.10;99.90
22968;DHT22;11650;48.106;-1.696;2023-07-24T04:05:59;15.10;99.90
22968;DHT22;11650;48.106;-1.696;2023-07-24T04:08:24;15.10;99.90
22968;DHT22;11650;48.106;-1.696;2023-07-24T04:10:50;15.10;99.90
22968;DHT22;11650;48.106;-1.696;2023-07-24T04:13:16;15.00;99.90
22968;DHT22;11650;48.106;-1.696;2023-07-24T04:15:41;15.00;99.90
22968;DHT22;11650;48.106;-1.696;2023-07-24T04:18:07;15.00;99.90
22968;DHT22;11650;48.106;-1.696;2023-07-24T04:20:32;15.00;99.90
22968;DHT22;11650;48.106;-1.696;2023-07-24T04:22:58;15.00;99.90
22968;DHT22;11650;48.106;-1.696;2023-07-24T04:25:24;15.10;99.90
22968;DHT22;11650;48.106;-1.696;2023-07-24T04:27:49;15.10;99.90
22968;DHT22;11650;48.106;-1.696;2023-07-24T04:30:15;15.10;99.90
22968;DHT22;11650;48.106;-1.696;2023-07-24T04:32:41;15.10;99.90
22968;DHT22;11650;48.106;-1.696;2023-07-24T04:35:08;15.20;99.90
22968;DHT22;11650;48.106;-1.696;2023-07-24T04:37:34;15.20;99.90
22968;DHT22;11650;48.106;-1.696;2023-07-24T04:39:59;15.20;99.90
22968;DHT22;11650;48.106;-1.696;2023-07-24T04:42:25;15.30;99.90
22968;DHT22;11650;48.106;-1.696;2023-07-24T04:44:50;15.30;99.90
22968;DHT22;11650;48.106;-1.696;2023-07-24T04:47:17;15.30;99.90
22968;DHT22;11650;48.106;-1.696;2023-07-24T04:49:42;15.30;99.90
22968;DHT22;11650;48.106;-1.696;2023-07-24T04:52:08;15.40;99.90
22968;DHT22;11650;48.106;-1.696;2023-07-24T04:54:33;15.40;99.90
22968;DHT22;11650;48.106;-1.696;2023-07-24T04:56:59;15.40;99.90
22968;DHT22;11650;48.106;-1.696;2023-07-24T04:59:25;15.40;99.90
22968;DHT22;11650;48.106;-1.696;2023-07-24T05:01:50;15.40;99.90
22968;DHT22;11650;48.106;-1.696;2023-07-24T05:04:16;15.40;99.90
22968;DHT22;11650;48.106;-1.696;2023-07-24T05:06:42;15.40;99.90
22968;DHT22;11650;48.106;-1.696;2023-07-24T05:09:07;15.50;99.90
22968;DHT22;11650;48.106;-1.696;2023-07-24T05:11:33;15.50;99.90
22968;DHT22;11650;48.106;-1.696;2023-07-24T05:13:58;15.50;99.90
22968;DHT22;11650;48.106;-1.696;2023-07-24T05:16:24;15.60;99.90
22968;DHT22;11650;48.106;-1.696;2023-07-24T05:18:50;15.60;99.90
22968;DHT22;11650;48.106;-1.696;2023-07-24T05:21:15;15.70;99.90
22968;DHT22;11650;48.106;-1.696;2023-07-24T05:23:41;15.70;99.90
22968;DHT22;11650;48.106;-1.696;2023-07-24T05:26:06;15.70;99.90
22968;DHT22;11650;48.106;-1.696;2023-07-24T05:28:32;15.80;99.90
22968;DHT22;11650;48.106;-1.696;2023-07-24T05:31:02;15.80;99.90
22968;DHT22;11650;48.106;-1.696;2023-07-24T05:33:28;15.80;99.90
22968;DHT22;11650;48.106;-1.696;2023-07-24T05:36:02;15.80;99.90
22968;DHT22;11650;48.106;-1.696;2023-07-24T05:38:28;15.80;99.90
22968;DHT22;11650;48.106;-1.696;2023-07-24T05:41:03;15.80;99.90
22968;DHT22;11650;48.106;-1.696;2023-07-24T05:43:30;15.80;99.90
22968;DHT22;11650;48.106;-1.696;2023-07-24T05:45:57;15.80;99.90
22968;DHT22;11650;48.106;-1.696;2023-07-24T05:48:23;15.80;99.90
22968;DHT22;11650;48.106;-1.696;2023-07-24T05:50:49;15.90;99.90
22968;DHT22;11650;48.106;-1.696;2023-07-24T05:53:16;15.90;99.90
22968;DHT22;11650;48.106;-1.696;2023-07-24T05:55:42;16.00;99.90
22968;DHT22;11650;48.106;-1.696;2023-07-24T05:58:08;16.00;99.90
22968;DHT22;11650;48.106;-1.696;2023-07-24T06:00:34;16.10;99.90
22968;DHT22;11650;48.106;-1.696;2023-07-24T06:02:59;16.10;99.90
22968;DHT22;11650;48.106;-1.696;2023-07-24T06:05:25;16.10;99.90
22968;DHT22;11650;48.106;-1.696;2023-07-24T06:07:50;16.20;99.90
22968;DHT22;11650;48.106;-1.696;2023-07-24T06:10:16;16.20;99.90
22968;DHT22;11650;48.106;-1.696;2023-07-24T06:12:42;16.30;99.90
22968;DHT22;11650;48.106;-1.696;2023-07-24T06:15:08;16.30;99.90
22968;DHT22;11650;48.106;-1.696;2023-07-24T06:17:33;16.40;99.90
22968;DHT22;11650;48.106;-1.696;2023-07-24T06:19:59;16.50;99.90
22968;DHT22;11650;48.106;-1.696;2023-07-24T06:22:25;16.50;99.90
22968;DHT22;11650;48.106;-1.696;2023-07-24T06:24:50;16.60;99.90
22968;DHT22;11650;48.106;-1.696;2023-07-24T06:27:16;16.60;99.90
22968;DHT22;11650;48.106;-1.696;2023-07-24T06:29:42;16.70;99.90
22968;DHT22;11650;48.106;-1.696;2023-07-24T06:32:08;16.70;99.90
22968;DHT22;11650;48.106;-1.696;2023-07-24T06:34:34;16.70;99.90
22968;DHT22;11650;48.106;-1.696;2023-07-24T06:36:59;16.70;99.90
22968;DHT22;11650;48.106;-1.696;2023-07-24T06:39:25;16.70;99.90
22968;DHT22;11650;48.106;-1.696;2023-07-24T06:41:52;16.70;99.90
22968;DHT22;11650;48.106;-1.696;2023-07-24T06:44:18;16.70;99.90
22968;DHT22;11650;48.106;-1.696;2023-07-24T06:46:43;16.70;99.90
22968;DHT22;11650;48.106;-1.696;2023-07-24T06:49:09;16.70;99.90
22968;DHT22;11650;48.106;-1.696;2023-07-24T06:51:36;16.70;99.90
22968;DHT22;11650;48.106;-1.696;2023-07-24T06:54:02;16.60;99.90
22968;DHT22;11650;48.106;-1.696;2023-07-24T06:56:28;16.60;99.90
22968;DHT22;11650;48.106;-1.696;2023-07-24T06:58:53;16.60;99.90
22968;DHT22;11650;48.106;-1.696;2023-07-24T07:01:19;16.70;99.90
22968;DHT22;11650;48.106;-1.696;2023-07-24T07:03:45;16.70;99.90
22968;DHT22;11650;48.106;-1.696;2023-07-24T07:06:10;16.70;99.90
22968;DHT22;11650;48.106;-1.696;2023-07-24T07:08:37;16.80;99.90
22968;DHT22;11650;48.106;-1.696;2023-07-24T07:11:03;16.90;99.90
22968;DHT22;11650;48.106;-1.696;2023-07-24T07:13:28;16.90;99.90
22968;DHT22;11650;48.106;-1.696;2023-07-24T07:15:54;16.90;99.90
22968;DHT22;11650;48.106;-1.696;2023-07-24T07:18:20;17.00;99.90
22968;DHT22;11650;48.106;-1.696;2023-07-24T07:20:46;17.10;99.90
22968;DHT22;11650;48.106;-1.696;2023-07-24T07:23:12;17.20;99.90
22968;DHT22;11650;48.106;-1.696;2023-07-24T07:25:38;17.30;99.90
22968;DHT22;11650;48.106;-1.696;2023-07-24T07:28:04;17.40;99.90
22968;DHT22;11650;48.106;-1.696;2023-07-24T07:30:29;17.50;99.90
22968;DHT22;11650;48.106;-1.696;2023-07-24T07:32:55;17.40;99.90
22968;DHT22;11650;48.106;-1.696;2023-07-24T07:35:21;17.40;99.90
22968;DHT22;11650;48.106;-1.696;2023-07-24T07:37:46;17.60;99.90
22968;DHT22;11650;48.106;-1.696;2023-07-24T07:40:12;17.50;99.90
22968;DHT22;11650;48.106;-1.696;2023-07-24T07:42:37;17.50;99.90
22968;DHT22;11650;48.106;-1.696;2023-07-24T07:45:04;17.50;99.90
22968;DHT22;11650;48.106;-1.696;2023-07-24T07:47:29;17.60;99.90
22968;DHT22;11650;48.106;-1.696;2023-07-24T07:49:55;17.60;99.90
22968;DHT22;11650;48.106;-1.696;2023-07-24T07:52:21;17.60;99.90
22968;DHT22;11650;48.106;-1.696;2023-07-24T07:54:48;17.60;99.90
22968;DHT22;11650;48.106;-1.696;2023-07-24T07:57:14;17.70;99.90
22968;DHT22;11650;48.106;-1.696;2023-07-24T07:59:39;17.80;99.90
22968;DHT22;11650;48.106;-1.696;2023-07-24T08:02:05;17.90;99.90
22968;DHT22;11650;48.106;-1.696;2023-07-24T08:04:31;18.00;99.90
22968;DHT22;11650;48.106;-1.696;2023-07-24T08:06:57;18.20;99.90
22968;DHT22;11650;48.106;-1.696;2023-07-24T08:09:23;18.40;99.90
22968;DHT22;11650;48.106;-1.696;2023-07-24T08:11:50;18.70;99.90
22968;DHT22;11650;48.106;-1.696;2023-07-24T08:14:17;18.80;99.90
22968;DHT22;11650;48.106;-1.696;2023-07-24T08:16:42;18.80;99.90
22968;DHT22;11650;48.106;-1.696;2023-07-24T08:19:08;18.70;99.90
22968;DHT22;11650;48.106;-1.696;2023-07-24T08:21:34;18.60;99.90
22968;DHT22;11650;48.106;-1.696;2023-07-24T08:23:59;18.70;99.90
22968;DHT22;11650;48.106;-1.696;2023-07-24T08:26:27;18.70;99.90
22968;DHT22;11650;48.106;-1.696;2023-07-24T08:28:53;18.60;99.90
22968;DHT22;11650;48.106;-1.696;2023-07-24T08:31:19;18.70;99.90
22968;DHT22;11650;48.106;-1.696;2023-07-24T08:33:44;18.90;99.90
22968;DHT22;11650;48.106;-1.696;2023-07-24T08:36:10;19.00;99.90
22968;DHT22;11650;48.106;-1.696;2023-07-24T08:38:39;19.10;99.90
22968;DHT22;11650;48.106;-1.696;2023-07-24T08:41:11;19.10;99.90
22968;DHT22;11650;48.106;-1.696;2023-07-24T08:43:38;19.30;99.90
22968;DHT22;11650;48.106;-1.696;2023-07-24T08:46:05;19.70;99.90
22968;DHT22;11650;48.106;-1.696;2023-07-24T08:48:37;19.60;99.90
22968;DHT22;11650;48.106;-1.696;2023-07-24T08:51:07;19.60;99.90
22968;DHT22;11650;48.106;-1.696;2023-07-24T08:53:37;19.50;99.90
22968;DHT22;11650;48.106;-1.696;2023-07-24T08:56:05;19.60;99.90
22968;DHT22;11650;48.106;-1.696;2023-07-24T08:58:31;19.60;99.90
22968;DHT22;11650;48.106;-1.696;2023-07-24T09:00:58;19.50;99.90
22968;DHT22;11650;48.106;-1.696;2023-07-24T09:03:25;19.60;99.90
22968;DHT22;11650;48.106;-1.696;2023-07-24T09:05:50;19.70;99.90
22968;DHT22;11650;48.106;-1.696;2023-07-24T09:08:16;19.80;99.90
22968;DHT22;11650;48.106;-1.696;2023-07-24T09:10:42;19.80;99.90
22968;DHT22;11650;48.106;-1.696;2023-07-24T09:13:11;19.70;99.90
22968;DHT22;11650;48.106;-1.696;2023-07-24T09:15:42;19.70;99.90
22968;DHT22;11650;48.106;-1.696;2023-07-24T09:18:08;19.90;99.90
22968;DHT22;11650;48.106;-1.696;2023-07-24T09:20:42;20.00;99.90
22968;DHT22;11650;48.106;-1.696;2023-07-24T09:23:09;20.10;99.90
22968;DHT22;11650;48.106;-1.696;2023-07-24T09:25:36;20.30;99.90
22968;DHT22;11650;48.106;-1.696;2023-07-24T09:28:15;20.40;99.90
22968;DHT22;11650;48.106;-1.696;2023-07-24T09:30:42;20.40;99.90
22968;DHT22;11650;48.106;-1.696;2023-07-24T09:33:16;20.30;99.90
22968;DHT22;11650;48.106;-1.696;2023-07-24T09:35:41;20.40;99.90
22968;DHT22;11650;48.106;-1.696;2023-07-24T09:38:09;20.20;99.90
22968;DHT22;11650;48.106;-1.696;2023-07-24T09:45:48;20.40;99.90
22968;DHT22;11650;48.106;-1.696;2023-07-24T09:48:15;20.40;99.90
22968;DHT22;11650;48.106;-1.696;2023-07-24T09:50:43;20.60;99.90
22968;DHT22;11650;48.106;-1.696;2023-07-24T09:53:28;20.80;99.90
22968;DHT22;11650;48.106;-1.696;2023-07-24T09:56:04;20.70;99.90
22968;DHT22;11650;48.106;-1.696;2023-07-24T09:58:33;20.80;99.90
22968;DHT22;11650;48.106;-1.696;2023-07-24T10:01:02;20.80;99.90
22968;DHT22;11650;48.106;-1.696;2023-07-24T10:03:28;21.10;99.90
22968;DHT22;11650;48.106;-1.696;2023-07-24T10:05:54;21.00;99.90
22968;DHT22;11650;48.106;-1.696;2023-07-24T10:08:21;20.70;99.90
22968;DHT22;11650;48.106;-1.696;2023-07-24T10:10:46;20.70;99.90
22968;DHT22;11650;48.106;-1.696;2023-07-24T10:13:16;20.80;99.90
22968;DHT22;11650;48.106;-1.696;2023-07-24T10:15:43;20.80;99.90
22968;DHT22;11650;48.106;-1.696;2023-07-24T10:18:10;20.70;99.90
22968;DHT22;11650;48.106;-1.696;2023-07-24T10:20:40;20.80;99.90
22968;DHT22;11650;48.106;-1.696;2023-07-24T10:23:08;21.00;99.90
22968;DHT22;11650;48.106;-1.696;2023-07-24T10:25:37;21.30;99.90
22968;DHT22;11650;48.106;-1.696;2023-07-24T10:28:07;21.60;99.90
22968;DHT22;11650;48.106;-1.696;2023-07-24T10:30:36;21.60;99.90
22968;DHT22;11650;48.106;-1.696;2023-07-24T10:33:12;21.70;99.90
22968;DHT22;11650;48.106;-1.696;2023-07-24T10:35:44;21.80;99.90
22968;DHT22;11650;48.106;-1.696;2023-07-24T10:38:14;22.10;99.90
22968;DHT22;11650;48.106;-1.696;2023-07-24T10:40:41;22.10;99.90
22968;DHT22;11650;48.106;-1.696;2023-07-24T10:43:09;22.30;99.90
22968;DHT22;11650;48.106;-1.696;2023-07-24T10:45:46;22.60;99.90
22968;DHT22;11650;48.106;-1.696;2023-07-24T10:48:13;22.60;99.90
22968;DHT22;11650;48.106;-1.696;2023-07-24T10:50:41;22.50;99.90
22968;DHT22;11650;48.106;-1.696;2023-07-24T10:53:08;22.40;99.90
22968;DHT22;11650;48.106;-1.696;2023-07-24T10:55:35;22.10;99.90
22968;DHT22;11650;48.106;-1.696;2023-07-24T10:58:00;22.10;99.90
22968;DHT22;11650;48.106;-1.696;2023-07-24T11:00:27;22.30;99.90
22968;DHT22;11650;48.106;-1.696;2023-07-24T11:02:54;22.40;99.90
22968;DHT22;11650;48.106;-1.696;2023-07-24T11:05:21;22.50;99.90
22968;DHT22;11650;48.106;-1.696;2023-07-24T11:07:47;22.70;99.90
22968;DHT22;11650;48.106;-1.696;2023-07-24T11:10:20;23.00;99.90
22968;DHT22;11650;48.106;-1.696;2023-07-24T11:12:46;22.90;99.90
22968;DHT22;11650;48.106;-1.696;2023-07-24T11:15:13;22.90;99.90
22968;DHT22;11650;48.106;-1.696;2023-07-24T11:17:40;22.70;99.90
22968;DHT22;11650;48.106;-1.696;2023-07-24T11:20:14;22.50;99.90
22968;DHT22;11650;48.106;-1.696;2023-07-24T11:22:41;22.50;99.90
22968;DHT22;11650;48.106;-1.696;2023-07-24T11:25:08;22.70;99.90
22968;DHT22;11650;48.106;-1.696;2023-07-24T11:27:41;22.90;99.90
22968;DHT22;11650;48.106;-1.696;2023-07-24T11:30:09;22.70;99.90
22968;DHT22;11650;48.106;-1.696;2023-07-24T11:32:37;22.50;99.90
22968;DHT22;11650;48.106;-1.696;2023-07-24T11:35:03;22.70;99.90
22968;DHT22;11650;48.106;-1.696;2023-07-24T11:37:29;22.70;99.90
22968;DHT22;11650;48.106;-1.696;2023-07-24T11:39:59;22.60;99.90
22968;DHT22;11650;48.106;-1.696;2023-07-24T11:42:30;22.60;99.90
22968;DHT22;11650;48.106;-1.696;2023-07-24T11:44:56;22.50;99.90
22968;DHT22;11650;48.106;-1.696;2023-07-24T11:47:26;22.90;99.90
22968;DHT22;11650;48.106;-1.696;2023-07-24T11:50:01;22.80;99.90
22968;DHT22;11650;48.106;-1.696;2023-07-24T11:52:45;23.00;99.90
22968;DHT22;11650;48.106;-1.696;2023-07-24T11:55:18;22.90;99.90
22968;DHT22;11650;48.106;-1.696;2023-07-24T11:57:55;22.90;99.90
22968;DHT22;11650;48.106;-1.696;2023-07-24T12:00:22;23.00;99.90
22968;DHT22;11650;48.106;-1.696;2023-07-24T12:02:49;22.90;99.90
22968;DHT22;11650;48.106;-1.696;2023-07-24T12:05:15;22.60;99.90
22968;DHT22;11650;48.106;-1.696;2023-07-24T12:07:42;22.60;99.90
22968;DHT22;11650;48.106;-1.696;2023-07-24T12:10:09;22.70;99.90
22968;DHT22;11650;48.106;-1.696;2023-07-24T12:12:39;22.90;99.90
22968;DHT22;11650;48.106;-1.696;2023-07-24T12:15:06;22.90;99.90
22968;DHT22;11650;48.106;-1.696;2023-07-24T12:17:31;23.40;99.90
22968;DHT22;11650;48.106;-1.696;2023-07-24T12:19:57;23.30;99.90
22968;DHT22;11650;48.106;-1.696;2023-07-24T12:22:23;23.00;99.90
22968;DHT22;11650;48.106;-1.696;2023-07-24T12:24:48;22.90;99.90
22968;DHT22;11650;48.106;-1.696;2023-07-24T12:27:14;23.20;99.90
22968;DHT22;11650;48.106;-1.696;2023-07-24T12:29:39;23.70;99.90
22968;DHT22;11650;48.106;-1.696;2023-07-24T12:32:05;23.80;99.90
22968;DHT22;11650;48.106;-1.696;2023-07-24T12:34:31;24.00;99.90
22968;DHT22;11650;48.106;-1.696;2023-07-24T12:36:57;24.10;99.90
22968;DHT22;11650;48.106;-1.696;2023-07-24T12:39:22;23.80;99.90
22968;DHT22;11650;48.106;-1.696;2023-07-24T12:41:48;23.60;99.90
22968;DHT22;11650;48.106;-1.696;2023-07-24T12:44:14;23.70;99.90
22968;DHT22;11650;48.106;-1.696;2023-07-24T12:46:39;24.00;99.90
22968;DHT22;11650;48.106;-1.696;2023-07-24T12:49:05;24.40;99.90
22968;DHT22;11650;48.106;-1.696;2023-07-24T12:51:30;24.20;99.90
22968;DHT22;11650;48.106;-1.696;2023-07-24T12:53:56;24.50;99.90
22968;DHT22;11650;48.106;-1.696;2023-07-24T12:56:21;24.70;99.90
22968;DHT22;11650;48.106;-1.696;2023-07-24T12:58:47;24.80;99.90
22968;DHT22;11650;48.106;-1.696;2023-07-24T13:01:13;24.90;99.90
22968;DHT22;11650;48.106;-1.696;2023-07-24T13:03:38;24.90;99.90
22968;DHT22;11650;48.106;-1.696;2023-07-24T13:06:04;25.10;99.90
22968;DHT22;11650;48.106;-1.696;2023-07-24T13:08:29;25.50;99.90
22968;DHT22;11650;48.106;-1.696;2023-07-24T13:10:55;25.20;99.90
22968;DHT22;11650;48.106;-1.696;2023-07-24T13:13:21;25.50;99.90
22968;DHT22;11650;48.106;-1.696;2023-07-24T13:15:46;25.40;99.90
22968;DHT22;11650;48.106;-1.696;2023-07-24T13:18:12;25.60;99.90
22968;DHT22;11650;48.106;-1.696;2023-07-24T13:20:40;25.40;99.90
22968;DHT22;11650;48.106;-1.696;2023-07-24T13:23:06;24.70;99.90
22968;DHT22;11650;48.106;-1.696;2023-07-24T13:25:31;24.40;99.90
22968;DHT22;11650;48.106;-1.696;2023-07-24T13:27:57;23.90;99.90
22968;DHT22;11650;48.106;-1.696;2023-07-24T13:30:23;23.50;99.90
22968;DHT22;11650;48.106;-1.696;2023-07-24T13:32:48;23.20;99.90
22968;DHT22;11650;48.106;-1.696;2023-07-24T13:35:14;23.00;99.90
22968;DHT22;11650;48.106;-1.696;2023-07-24T13:37:41;22.70;99.90
22968;DHT22;11650;48.106;-1.696;2023-07-24T13:40:07;22.30;99.90
22968;DHT22;11650;48.106;-1.696;2023-07-24T13:42:33;21.10;99.90
22968;DHT22;11650;48.106;-1.696;2023-07-24T13:44:58;21.00;99.90
22968;DHT22;11650;48.106;-1.696;2023-07-24T13:47:24;21.20;99.90
22968;DHT22;11650;48.106;-1.696;2023-07-24T13:49:49;21.50;99.90
22968;DHT22;11650;48.106;-1.696;2023-07-24T13:52:15;22.30;99.90
22968;DHT22;11650;48.106;-1.696;2023-07-24T13:54:41;23.30;99.90
22968;DHT22;11650;48.106;-1.696;2023-07-24T13:57:06;24.90;99.90
22968;DHT22;11650;48.106;-1.696;2023-07-24T13:59:36;25.30;99.90
22968;DHT22;11650;48.106;-1.696;2023-07-24T14:02:03;26.00;99.90
22968;DHT22;11650;48.106;-1.696;2023-07-24T14:04:29;25.50;99.90
22968;DHT22;11650;48.106;-1.696;2023-07-24T14:06:55;25.80;99.90
22968;DHT22;11650;48.106;-1.696;2023-07-24T14:09:20;26.20;99.90
22968;DHT22;11650;48.106;-1.696;2023-07-24T14:11:46;26.20;99.90
22968;DHT22;11650;48.106;-1.696;2023-07-24T14:14:11;26.20;99.90
22968;DHT22;11650;48.106;-1.696;2023-07-24T14:16:37;25.50;99.90
22968;DHT22;11650;48.106;-1.696;2023-07-24T14:19:03;24.90;99.90
22968;DHT22;11650;48.106;-1.696;2023-07-24T14:21:28;24.50;99.90
22968;DHT22;11650;48.106;-1.696;2023-07-24T14:23:54;24.10;99.90
22968;DHT22;11650;48.106;-1.696;2023-07-24T14:26:19;23.60;99.90
22968;DHT22;11650;48.106;-1.696;2023-07-24T14:28:45;23.30;99.90
22968;DHT22;11650;48.106;-1.696;2023-07-24T14:31:11;23.10;99.90
22968;DHT22;11650;48.106;-1.696;2023-07-24T14:33:36;22.90;99.90
22968;DHT22;11650;48.106;-1.696;2023-07-24T14:36:02;22.60;99.90
22968;DHT22;11650;48.106;-1.696;2023-07-24T14:38:28;22.20;99.90
22968;DHT22;11650;48.106;-1.696;2023-07-24T14:40:53;22.10;99.90
22968;DHT22;11650;48.106;-1.696;2023-07-24T14:43:19;22.10;99.90
22968;DHT22;11650;48.106;-1.696;2023-07-24T14:45:45;22.50;99.90
22968;DHT22;11650;48.106;-1.696;2023-07-24T14:48:10;23.80;99.90
22968;DHT22;11650;48.106;-1.696;2023-07-24T14:50:38;23.30;99.90
22968;DHT22;11650;48.106;-1.696;2023-07-24T14:53:03;22.50;99.90
22968;DHT22;11650;48.106;-1.696;2023-07-24T14:55:29;22.00;99.90
22968;DHT22;11650;48.106;-1.696;2023-07-24T14:57:55;21.60;99.90
22968;DHT22;11650;48.106;-1.696;2023-07-24T15:00:20;21.30;99.90
22968;DHT22;11650;48.106;-1.696;2023-07-24T15:02:46;21.20;99.90
22968;DHT22;11650;48.106;-1.696;2023-07-24T15:05:12;21.10;99.90
22968;DHT22;11650;48.106;-1.696;2023-07-24T15:07:37;21.10;99.90
22968;DHT22;11650;48.106;-1.696;2023-07-24T15:10:03;21.00;99.90
22968;DHT22;11650;48.106;-1.696;2023-07-24T15:12:29;20.80;99.90
22968;DHT22;11650;48.106;-1.696;2023-07-24T15:14:56;20.60;99.90
22968;DHT22;11650;48.106;-1.696;2023-07-24T15:17:21;20.40;99.90
22968;DHT22;11650;48.106;-1.696;2023-07-24T15:19:47;20.30;99.90